地図

経路データ

SID SEASON NUMBER BASIN SUBBASIN NAME ISO_TIME NATURE LAT LON WMO_WIND WMO_PRES WMO_AGENCY TRACK_TYPE DIST2LAND LANDFALL IFLAG USA_AGENCY USA_ATCF_ID USA_LAT USA_LON USA_RECORD USA_STATUS USA_WIND USA_PRES USA_SSHS USA_R34_NE USA_R34_SE USA_R34_SW USA_R34_NW USA_R50_NE USA_R50_SE USA_R50_SW USA_R50_NW USA_R64_NE USA_R64_SE USA_R64_SW USA_R64_NW USA_POCI USA_ROCI USA_RMW USA_EYE TOKYO_LAT TOKYO_LON TOKYO_GRADE TOKYO_WIND TOKYO_PRES TOKYO_R50_DIR TOKYO_R50_LONG TOKYO_R50_SHORT TOKYO_R30_DIR TOKYO_R30_LONG TOKYO_R30_SHORT TOKYO_LAND CMA_LAT CMA_LON CMA_CAT CMA_WIND CMA_PRES HKO_LAT HKO_LON HKO_CAT HKO_WIND HKO_PRES NEWDELHI_LAT NEWDELHI_LON NEWDELHI_GRADE NEWDELHI_WIND NEWDELHI_PRES NEWDELHI_CI NEWDELHI_DP NEWDELHI_POCI REUNION_LAT REUNION_LON REUNION_TYPE REUNION_WIND REUNION_PRES REUNION_TNUM REUNION_CI REUNION_RMW REUNION_R34_NE REUNION_R34_SE REUNION_R34_SW REUNION_R34_NW REUNION_R50_NE REUNION_R50_SE REUNION_R50_SW REUNION_R50_NW REUNION_R64_NE REUNION_R64_SE REUNION_R64_SW REUNION_R64_NW BOM_LAT BOM_LON BOM_TYPE BOM_WIND BOM_PRES BOM_TNUM BOM_CI BOM_RMW BOM_R34_NE BOM_R34_SE BOM_R34_SW BOM_R34_NW BOM_R50_NE BOM_R50_SE BOM_R50_SW BOM_R50_NW BOM_R64_NE BOM_R64_SE BOM_R64_SW BOM_R64_NW BOM_ROCI BOM_POCI BOM_EYE BOM_POS_METHOD BOM_PRES_METHOD NADI_LAT NADI_LON NADI_CAT NADI_WIND NADI_PRES WELLINGTON_LAT WELLINGTON_LON WELLINGTON_WIND WELLINGTON_PRES DS824_LAT DS824_LON DS824_STAGE DS824_WIND DS824_PRES TD9636_LAT TD9636_LON TD9636_STAGE TD9636_WIND TD9636_PRES TD9635_LAT TD9635_LON TD9635_WIND TD9635_PRES TD9635_ROCI NEUMANN_LAT NEUMANN_LON NEUMANN_CLASS NEUMANN_WIND NEUMANN_PRES MLC_LAT MLC_LON MLC_CLASS MLC_WIND MLC_PRES USA_GUST BOM_GUST BOM_GUST_PER REUNION_GUST REUNION_GUST_PER USA_SEAHGT USA_SEARAD_NE USA_SEARAD_SE USA_SEARAD_SW USA_SEARAD_NW STORM_SPEED STORM_DIR
2012071S10132 2012 16 SI WA NOT_NAMED 2012-03-11 00:00:00 NR -10.2000 131.700 15 1004 bom main 116 112 ______O_______ -5 -10.2000 131.700 20 15 1004 1.00000 1.00000 1008 3 40 40 6 258
2012071S10132 2012 16 SI WA NOT_NAMED 2012-03-11 03:00:00 NR -10.2623 131.413 main 112 112 ______P_______ -5 -10.2623 131.413 20 15 1003 1007 6 260
2012071S10132 2012 16 SI WA NOT_NAMED 2012-03-11 06:00:00 NR -10.3000 131.100 15 1002 bom main 112 112 ______O_______ -5 -10.3000 131.100 20 15 1002 1.00000 1.00000 1006 3 40 40 7 267
2012071S10132 2012 16 SI WA NOT_NAMED 2012-03-11 09:00:00 NR -10.3008 130.750 main 112 112 ______P_______ -5 -10.3008 130.750 20 17 1002 1007 7 270
2012071S10132 2012 16 SI WA NOT_NAMED 2012-03-11 12:00:00 NR -10.3000 130.400 20 1003 bom main 112 112 ______O_______ -5 -10.3000 130.400 20 20 1003 1.00000 1.00000 1008 3 45 45 6 267
2012071S10132 2012 16 SI WA NOT_NAMED 2012-03-11 15:00:00 NR -10.3367 130.093 main 120 114 ______P_______ -5 -10.3367 130.093 20 20 1002 1007 6 261
2012071S10132 2012 16 SI WA NOT_NAMED 2012-03-11 18:00:00 NR -10.3900 129.800 20 1001 bom main 120 120 ______O_______ -5 -10.3900 129.800 20 20 1001 1.50000 1.50000 1006 3 45 45 6 262
2012071S10132 2012 16 SI WA NOT_NAMED 2012-03-11 21:00:00 NR -10.4217 129.500 main 135 135 ______P_______ -5 -10.4217 129.500 20 22 1001 1007 6 259
2012071S10132 2012 16 SI WA NOT_NAMED 2012-03-12 00:00:00 NR -10.5000 129.200 25 1001 bom main 148 148 ______O_______ -5 -10.5000 129.200 20 25 1001 1.50000 1.50000 1008 3 45 45 7 247
2012071S10132 2012 16 SI WA NOT_NAMED 2012-03-12 03:00:00 NR -10.6782 128.893 main 158 158 ______P_______ -5 -10.6782 128.893 20 25 1000 1007 7 236
2012071S10132 2012 16 SI WA NOT_NAMED 2012-03-12 06:00:00 NR -10.9000 128.600 25 1000 bom main 176 176 ______O_______ -5 -10.9000 128.600 20 25 1000 1.50000 1.50000 1006 3 45 45 7 233
2012071S10132 2012 16 SI WA NOT_NAMED 2012-03-12 09:00:00 NR -11.1000 128.314 main 201 201 ______P_______ -5 -11.1000 128.314 20 25 1000 1007 6 231
2012071S10132 2012 16 SI WA NOT_NAMED 2012-03-12 12:00:00 NR -11.3000 128.090 25 1000 bom main 219 219 ______O_______ -5 -11.3000 128.090 20 25 1000 1.50000 1.50000 1008 3 45 45 5 222
2012071S10132 2012 16 SI WA NOT_NAMED 2012-03-12 15:00:00 NR -11.4925 127.957 main 228 228 ______P_______ -5 -11.4925 127.957 20 25 1000 1007 4 205
2012071S10132 2012 16 SI WA NOT_NAMED 2012-03-12 18:00:00 NR -11.7000 127.900 25 1000 bom main 239 229 ______O_______ -5 -11.7000 127.900 20 25 1000 2.00000 2.00000 1006 3 45 45 5 189
2012071S10132 2012 16 SI WA NOT_NAMED 2012-03-12 21:00:00 NR -11.9575 127.878 main 219 199 ______P_______ -5 -11.9575 127.878 20 25 1000 1006 5 178
2012071S10132 2012 16 SI WA NOT_NAMED 2012-03-13 00:00:00 NR -12.2000 127.900 25 1000 bom main 199 189 ______O_______ -5 -12.2000 127.900 20 25 1000 2.00000 2.00000 1006 3 45 45 4 169
2012071S10132 2012 16 SI WA NOT_NAMED 2012-03-13 03:00:00 NR -12.3425 127.943 main 189 175 ______P_______ -5 -12.3425 127.943 20 25 999 1006 3 163
2012071S10132 2012 16 SI WA NOT_NAMED 2012-03-13 06:00:00 NR -12.5000 128.000 25 998 bom main 175 148 ______O_______ -5 -12.5000 128.000 20 25 998 2.00000 2.00000 1006 3 45 45 5 166
2012071S10132 2012 16 SI WA NOT_NAMED 2012-03-13 09:00:00 NR -12.7775 128.050 main 154 126 ______P_______ -5 -12.7775 128.050 20 27 997 1006 6 171
2012071S10132 2012 16 SI WA NOT_NAMED 2012-03-13 12:00:00 NR -13.1000 128.100 30 997 bom main 126 99 ______O_______ -5 -13.1000 128.100 20 30 997 2.50000 2.50000 1006 3 45 45 6 172
2012071S10132 2012 16 SI WA NOT_NAMED 2012-03-13 15:00:00 NR -13.3925 128.143 main 99 77 ______P_______ -5 -13.3925 128.143 20 30 997 1005 6 171
2012071S10132 2012 16 SI WA NOT_NAMED 2012-03-13 18:00:00 NR -13.7000 128.200 30 997 bom main 77 58 ______O_______ -5 -13.7000 128.200 20 30 997 2.50000 2.50000 1004 3 45 45 7 170
2012071S10132 2012 16 SI WA NOT_NAMED 2012-03-13 21:00:00 NR -14.0649 128.263 main 62 39 ______P_______ -5 -14.0649 128.263 20 30 997 1005 7 165
2012071S10132 2012 16 SI WA NOT_NAMED 2012-03-14 00:00:00 NR -14.4000 128.400 30 997 bom main 39 31 ______O_______ -5 -14.4000 128.400 20 30 997 2.00000 2.50000 1006 3 45 45 7 148
2012071S10132 2012 16 SI WA NOT_NAMED 2012-03-14 03:00:00 NR -14.6374 128.640 main 33 15 ______P_______ -5 -14.6374 128.640 20 30 996 1004 7 125
2012071S10132 2012 16 SI WA NOT_NAMED 2012-03-14 06:00:00 NR -14.8000 129.000 30 996 bom main 22 11 ______O_______ -5 -14.8000 129.000 20 30 996 1.50000 2.00000 1003 3 45 45 8 107
2012071S10132 2012 16 SI WA NOT_NAMED 2012-03-14 09:00:00 NR -14.8773 129.440 main 11 0 ______P_______ -5 -14.8773 129.440 20 27 997 1003 10 102
2012071S10132 2012 16 SI WA NOT_NAMED 2012-03-14 12:00:00 NR -15.0000 130.000 25 998 bom main 0 0 ______O_______ -5 -15.0000 130.000 20 25 998 1004 3 45 45 13 110
2012071S10132 2012 16 SI WA NOT_NAMED 2012-03-14 15:00:00 NR -15.3051 130.677 main 0 0 ______P_______ -5 -15.3051 130.677 20 20 998 1004 15 117
2012071S10132 2012 16 SI WA NOT_NAMED 2012-03-14 18:00:00 NR -15.7000 131.400 15 998 bom main 0 0 ______O_______ -5 -15.7000 131.400 20 15 998 1004 3 34 34 16 121
2012071S10132 2012 16 SI WA NOT_NAMED 2012-03-14 21:00:00 NR -16.1300 132.095 main 0 0 ______P_______ -5 -16.1300 132.095 20 15 999 1005 15 123
2012071S10132 2012 16 SI WA NOT_NAMED 2012-03-15 00:00:00 NR -16.5000 132.700 15 1000 bom main 0 0 ______O_______ -5 -16.5000 132.700 20 15 1000 1006 3 34 34 12 119
2012071S10132 2012 16 SI WA NOT_NAMED 2012-03-15 03:00:00 NR -16.6947 133.145 main 0 0 ______P_______ -5 -16.6947 133.145 20 15 998 1005 8 111
2012071S10132 2012 16 SI WA NOT_NAMED 2012-03-15 06:00:00 NR -16.8000 133.500 15 997 bom main 0 0 ______O_______ -5 -16.8000 133.500 20 15 997 1004 3 34 34 7 109
2012071S10132 2012 16 SI WA NOT_NAMED 2012-03-15 09:00:00 NR -16.9223 133.843 main 0 0 ______P_______ -5 -16.9223 133.843 20 15 998 1004 7 107
2012071S10132 2012 16 SI WA NOT_NAMED 2012-03-15 12:00:00 NR -17.0000 134.200 15 999 bom main 0 0 ______O_______ -5 -17.0000 134.200 20 15 999 1004 3 34 34 8 97
2012071S10132 2012 16 SI WA NOT_NAMED 2012-03-15 15:00:00 NR -17.0150 134.635 main 0 0 ______P_______ -5 -17.0150 134.635 20 15 998 1004 9 90
2012071S10132 2012 16 SP EA NOT_NAMED 2012-03-15 18:00:00 NR -17.0000 135.100 15 998 bom main 0 0 ______O_______ -5 -17.0000 135.100 20 15 998 1004 3 34 34 8 87
2012071S10132 2012 16 SP EA NOT_NAMED 2012-03-15 21:00:00 NR -16.9770 135.505 main 0 0 ______P_______ -5 -16.9770 135.505 20 15 999 1005 9 90
2012071S10132 2012 16 SP EA NOT_NAMED 2012-03-16 00:00:00 NR -17.0000 136.000 15 1000 bom main 0 0 ______O_______ -5 -17.0000 136.000 20 15 1000 1006 3 34 34 11 99
2012071S10132 2012 16 SP EA NOT_NAMED 2012-03-16 03:00:00 NR -17.1649 136.682 main 0 0 ______P_______ -5 -17.1649 136.682 20 15 998 1004 15 102
2012071S10132 2012 16 SP EA NOT_NAMED 2012-03-16 06:00:00 NR -17.3000 137.500 15 997 bom main 0 0 ______O_______ -5 -17.3000 137.500 20 15 997 1003 3 40 40 17 93
2012071S10132 2012 16 SP EA NOT_NAMED 2012-03-16 09:00:00 NR -17.2530 138.430 main 0 0 ______P_______ -5 -17.2530 138.430 20 17 997 1003 17 83
2012071S10132 2012 16 SP EA NOT_NAMED 2012-03-16 12:00:00 NR -17.1000 139.300 20 998 bom main 10 10 ______O_______ -5 -17.1000 139.300 20 20 998 1004 3 45 45 15 75
2012071S10132 2012 16 SP EA NOT_NAMED 2012-03-16 15:00:00 NR -16.8769 139.910 main 70 70 ______P_______ -5 -16.8769 139.910 20 22 997 1004 11 69
2012071S10132 2012 16 SP EA NOT_NAMED 2012-03-16 18:00:00 NR -16.7000 140.400 25 996 bom main 72 21 ______O_______ -5 -16.7000 140.400 20 25 996 1.50000 1.50000 1004 3 45 45 10 81
2012071S10132 2012 16 SP EA NOT_NAMED 2012-03-16 21:00:00 NR -16.7127 140.982 main 21 0 ______P_______ -5 -16.7127 140.982 20 25 996 1005 10 96
2012071S10132 2012 16 SP EA NOT_NAMED 2012-03-17 00:00:00 NR -16.8000 141.400 25 997 bom main 0 0 ______O_______ -5 -16.8000 141.400 20 25 997 1.50000 1.50000 1006 3 45 45 5 106
2012071S10132 2012 16 SP EA NOT_NAMED 2012-03-17 03:00:00 NR -16.8498 141.483 main 0 0 ______P_______ -5 -16.8498 141.483 20 25 996 1005 1 0
2012071S10132 2012 16 SP EA NOT_NAMED 2012-03-17 06:00:00 NR -16.9000 141.400 25 995 bom main 0 0 ______O_______ -5 -16.9000 141.400 20 25 995 1.50000 1.50000 1004 3 45 45 2 223
2012071S10132 2012 16 SP EA NOT_NAMED 2012-03-17 09:00:00 NR -16.9575 141.373 main 0 0 ______P_______ -5 -16.9575 141.373 20 25 995 1005 1 223
2012071S10132 2012 16 SP EA NOT_NAMED 2012-03-17 12:00:00 NR -17.0000 141.300 25 996 bom main 0 0 ______O_______ -5 -17.0000 141.300 20 25 996 2.00000 2.00000 1006 3 45 45 2 250
2012071S10132 2012 16 SP EA NOT_NAMED 2012-03-17 15:00:00 NR -17.0300 141.158 main 0 0 ______P_______ -5 -17.0300 141.158 20 25 996 1006 3 270
2012071S10132 2012 16 SP EA NOT_NAMED 2012-03-17 18:00:00 NR -17.0000 141.000 25 996 bom main 0 0 ______O_______ -5 -17.0000 141.000 20 25 996 2.00000 2.00000 1006 3 45 45 3 305
2012071S10132 2012 16 SP EA NOT_NAMED 2012-03-17 21:00:00 NR -16.8425 140.877 main 24 24 ______P_______ -5 -16.8425 140.877 20 25 996 1006 4 328
2012071S10132 2012 16 SP EA NOT_NAMED 2012-03-18 00:00:00 NR -16.7000 140.800 25 996 bom main 39 39 ______O_______ -5 -16.7000 140.800 20 25 996 2.00000 2.00000 1007 45 45 2 321
2012071S10132 2012 16 SP EA NOT_NAMED 2012-03-18 03:00:00 NR -16.7275 140.778 main 39 30 ______P_______ -5 -16.7275 140.778 20 27 994 1005 1 0
2012071S10132 2012 16 SP EA NOT_NAMED 2012-03-18 06:00:00 NR -16.8000 140.800 30 993 bom main 30 30 ______O_______ -5 -16.8000 140.800 20 30 993 2.50000 2.50000 1004 3 45 45 1 137
2012071S10132 2012 16 SP EA NOT_NAMED 2012-03-18 09:00:00 NR -16.7925 140.843 main 30 24 ______P_______ -5 -16.7925 140.843 20 30 993 1005 1 90
2012071S10132 2012 16 SP EA NOT_NAMED 2012-03-18 12:00:00 NR -16.8000 140.900 30 994 bom main 24 15 ______O_______ -5 -16.8000 140.900 20 30 994 2.50000 2.50000 1006 3 45 45 1 135
2012071S10132 2012 16 SP EA NOT_NAMED 2012-03-18 15:00:00 NR -16.8925 140.950 main 15 0 ______P_______ -5 -16.8925 140.950 20 27 994 1006 2 153
2012071S10132 2012 16 SP EA NOT_NAMED 2012-03-18 18:00:00 NR -17.0000 141.000 25 994 bom main 0 0 ______O_______ -5 -17.0000 141.000 20 25 994 1006 3 45 45 2 150
2012071S10132 2012 16 SP EA NOT_NAMED 2012-03-18 21:00:00 NR -17.0575 141.050 main 0 0 ______P_______ -5 -17.0575 141.050 20 25 994 1006 1 137
2012071S10132 2012 16 SP EA NOT_NAMED 2012-03-19 00:00:00 NR -17.1000 141.100 25 994 bom main 0 0 ______O_______ -5 -17.1000 141.100 20 25 994 1006 3 45 45 1 110
2012071S10132 2012 16 SP EA NOT_NAMED 2012-03-19 03:00:00 NR -17.0900 141.143 main 0 0 ______P_______ -5 -17.0900 141.143 20 25 994 1005 1 137
2012071S10132 2012 16 SP EA NOT_NAMED 2012-03-19 06:00:00 NR -17.2000 141.200 25 994 bom main 0 0 ______O_______ -5 -17.2000 141.200 20 25 994 1004 3 45 45 5 166
2012071S10132 2012 16 SP EA NOT_NAMED 2012-03-19 09:00:00 NR -17.6050 141.278 main 0 0 ______P_______ -5 -17.6050 141.278 20 22 994 1005 9 168
2012071S10132 2012 16 SP EA NOT_NAMED 2012-03-19 12:00:00 NR -18.1000 141.400 20 995 bom main 0 0 ______O_______ -5 -18.1000 141.400 20 20 995 1006 3 40 40 9 160
2012071S10132 2012 16 SP EA NOT_NAMED 2012-03-19 15:00:00 NR -18.4425 141.593 main 0 0 ______P_______ -5 -18.4425 141.593 20 17 995 1005 8 152
2012071S10132 2012 16 SP EA NOT_NAMED 2012-03-19 18:00:00 NR -18.8000 141.800 15 995 bom main 0 0 ______O_______ -5 -18.8000 141.800 20 15 995 1005 3 40 40 9 158
2012071S10132 2012 16 SP EA NOT_NAMED 2012-03-19 21:00:00 NR -19.2999 141.950 main 0 0 ______P_______ -5 -19.2999 141.950 20 15 995 1005 10 164
2012071S10132 2012 16 SP EA NOT_NAMED 2012-03-20 00:00:00 NR -19.8000 142.100 15 996 bom main 0 0 ______O_______ -5 -19.8000 142.100 20 15 996 1006 3 34 34 9 160
2012071S10132 2012 16 SP EA NOT_NAMED 2012-03-20 03:00:00 NR -20.1830 142.300 main 0 0 ______P_______ -5 -20.1830 142.300 20 15 995 1005 8 152
2012071S10132 2012 16 SP EA NOT_NAMED 2012-03-20 06:00:00 NR -20.5000 142.500 15 994 bom main 0 0 ______O_______ -5 -20.5000 142.500 20 15 994 1004 3 40 40 7 153
2012071S10132 2012 16 SP EA NOT_NAMED 2012-03-20 09:00:00 NR -20.7768 142.620 main 0 0 ______P_______ -5 -20.7768 142.620 20 15 995 1004 6 154
2012071S10132 2012 16 SP EA NOT_NAMED 2012-03-20 12:00:00 NR -21.0600 142.800 15 996 bom main 0 0 ______O_______ -5 -21.0600 142.800 20 15 996 1005 3 40 40 8 142
2012071S10132 2012 16 SP EA NOT_NAMED 2012-03-20 15:00:00 NR -21.4121 143.155 main 0 0 ______P_______ -5 -21.4121 143.155 20 15 996 1005 11 135
2012071S10132 2012 16 SP EA NOT_NAMED 2012-03-20 18:00:00 NR -21.8000 143.600 15 996 bom main 0 0 ______O_______ -5 -21.8000 143.600 20 15 996 1005 3 40 40 12 136
2012071S10132 2012 16 SP EA NOT_NAMED 2012-03-20 21:00:00 NR -22.2402 144.020 main 0 0 ______P_______ -5 -22.2402 144.020 20 15 996 1005 12 134
2012071S10132 2012 16 SP EA NOT_NAMED 2012-03-21 00:00:00 NR -22.6000 144.500 15 997 bom main 0 0 ______O_______ -5 -22.6000 144.500 20 15 997 1006 3 40 40 11 119
2012071S10132 2012 16 SP EA NOT_NAMED 2012-03-21 03:00:00 NR -22.7823 145.062 main 0 0 ______P_______ -5 -22.7823 145.062 20 12 996 1005 11 100
2012071S10132 2012 16 SP EA NOT_NAMED 2012-03-21 06:00:00 NR -22.8000 145.700 10 996 bom main 0 0 ______O_______ -5 -22.8000 145.700 20 10 996 1004 3 40 40 12 85
2012071S10132 2012 16 SP EA NOT_NAMED 2012-03-21 09:00:00 NR -22.6856 146.388 main 0 0 ______P_______ -5 -22.6856 146.388 20 10 997 1004 13 77
2012071S10132 2012 16 SP EA NOT_NAMED 2012-03-21 12:00:00 NR -22.5000 147.100 10 998 bom main 0 ______O_______ -5 -22.5000 147.100 20 10 998 1005 3 34 34 14 74

IBTrACS Databaseについて

本データベースは、米国NOAAが公開する1842年以降の世界の熱帯低気圧のベストトラックデータアーカイブInternational Best Track Archive for Climate Stewardship (IBTrACS)を、ウェブで閲覧しやすい形式に変換したものです。

最終更新日:2022-11-16